createdAt,value
2018-07-16T00:01:00.696Z,100223.28
2018-07-16T00:02:37.879Z,100169.50
2018-07-16T00:04:17.310Z,100140.23
2018-07-16T00:05:53.859Z,100129.68
2018-07-16T00:07:30.329Z,100155.79
2018-07-16T00:09:06.843Z,100212.28
2018-07-16T00:10:44.187Z,100164.80
2018-07-16T00:12:20.599Z,100166.53
2018-07-16T00:13:57.682Z,100235.39
2018-07-16T00:15:34.857Z,100247.50
2018-07-16T00:17:11.275Z,100226.00
2018-07-16T00:18:48.953Z,100186.06
2018-07-16T00:20:26.152Z,100206.56
2018-07-16T00:22:02.492Z,100239.46
2018-07-16T00:23:39.703Z,100242.56
2018-07-16T00:25:16.512Z,100147.11
2018-07-16T00:26:53.794Z,100128.03
2018-07-16T00:28:30.562Z,100176.02
2018-07-16T00:30:08.214Z,100167.50
2018-07-16T00:31:44.810Z,100290.55
2018-07-16T00:33:21.289Z,100342.14
2018-07-16T00:34:57.850Z,100426.48
2018-07-16T00:36:34.471Z,100482.64
2018-07-16T00:38:11.316Z,100558.31
2018-07-16T00:39:48.129Z,100568.12
2018-07-16T00:41:25.198Z,100533.92
2018-07-16T00:43:03.967Z,100610.47
2018-07-16T00:44:41.229Z,100568.20
2018-07-16T00:46:18.688Z,100547.67
2018-07-16T00:47:55.543Z,100527.33
2018-07-16T00:49:32.213Z,100558.05
2018-07-16T00:51:09.129Z,100627.84
2018-07-16T00:52:45.418Z,100669.14
2018-07-16T00:54:21.796Z,100691.48
2018-07-16T00:55:58.869Z,100656.32
2018-07-16T00:57:35.536Z,100668.94
2018-07-16T00:59:11.967Z,100674.19
2018-07-16T01:00:48.652Z,100716.02
2018-07-16T01:02:24.957Z,100680.50
2018-07-16T01:04:01.311Z,100598.65
2018-07-16T01:05:37.594Z,100578.98
2018-07-16T01:07:14.293Z,100603.59
2018-07-16T01:08:50.587Z,100558.14
2018-07-16T01:10:27.019Z,100512.31
2018-07-16T01:12:03.367Z,100497.21
2018-07-16T01:13:40.231Z,100605.44
2018-07-16T01:15:16.868Z,100683.30
2018-07-16T01:16:53.188Z,100751.34
2018-07-16T01:18:31.347Z,100663.23
2018-07-16T01:20:17.936Z,100594.30
2018-07-16T01:21:54.691Z,100564.54
2018-07-16T01:23:31.160Z,100447.03
2018-07-16T01:25:07.706Z,100447.03
2018-07-16T01:26:44.799Z,100414.55
2018-07-16T01:28:21.175Z,100428.41
2018-07-16T01:29:59.720Z,100488.50
2018-07-16T01:31:36.355Z,100581.88
2018-07-16T01:33:12.775Z,100611.35
2018-07-16T01:34:49.059Z,100574.34
2018-07-16T01:36:25.423Z,100491.22
2018-07-16T01:38:02.175Z,100428.02
2018-07-16T01:39:38.542Z,100440.04
2018-07-16T01:41:14.856Z,100385.72
2018-07-16T01:42:51.320Z,100396.47
2018-07-16T01:44:27.575Z,100361.31
2018-07-16T01:46:04.432Z,100333.73
2018-07-16T01:47:40.818Z,100319.13
2018-07-16T01:49:17.126Z,100273.84
2018-07-16T01:50:54.012Z,100252.08
2018-07-16T01:52:30.256Z,100330.23
2018-07-16T01:54:06.764Z,100361.41
2018-07-16T01:55:43.204Z,100228.18
2018-07-16T01:57:20.904Z,100223.24
2018-07-16T01:58:58.713Z,100263.19
2018-07-16T02:00:42.835Z,100339.63
2018-07-16T02:02:20.446Z,100436.55
2018-07-16T02:03:57.490Z,100457.88
2018-07-16T02:05:33.824Z,100450.45
2018-07-16T02:07:11.817Z,100439.66
2018-07-16T02:08:49.197Z,100387.64
2018-07-16T02:10:26.236Z,100361.53
2018-07-16T02:12:02.582Z,100430.34
2018-07-16T02:13:42.540Z,100412.05
2018-07-16T02:15:19.367Z,100447.40
2018-07-16T02:16:57.631Z,100460.69
2018-07-16T02:18:37.233Z,100540.81
2018-07-16T02:20:33.099Z,100566.20
2018-07-16T02:22:10.094Z,100488.69
2018-07-16T02:23:46.333Z,100392.59
2018-07-16T02:25:24.601Z,100319.05
2018-07-16T02:27:01.466Z,100214.94
2018-07-16T02:28:38.077Z,100144.42
2018-07-16T02:30:22.209Z,100092.53
2018-07-16T02:32:01.889Z,100026.42
2018-07-16T02:33:54.132Z,99970.22
2018-07-16T02:35:33.256Z,99941.83
2018-07-16T02:37:11.134Z,99980.86
2018-07-16T02:38:47.633Z,99969.25
2018-07-16T02:40:25.016Z,99986.14
2018-07-16T02:42:07.254Z,99988.27
2018-07-16T02:43:49.385Z,99988.37
2018-07-16T02:45:30.835Z,99961.84
2018-07-16T02:47:14.659Z,99927.25
2018-07-16T02:48:53.783Z,99912.59
2018-07-16T02:50:30.411Z,99922.81
2018-07-16T02:52:10.188Z,99917.52
2018-07-16T02:54:06.835Z,99878.47
2018-07-16T02:56:05.253Z,99836.88
2018-07-16T02:57:50.952Z,99752.28
2018-07-16T03:00:39.307Z,99577.74
2018-07-16T03:02:30.215Z,99401.91
2018-07-16T03:04:11.461Z,99365.64
2018-07-16T03:05:48.973Z,99371.77
2018-07-16T03:07:25.932Z,99468.63
2018-07-16T03:09:03.203Z,99604.83
2018-07-16T03:10:40.178Z,99711.59
2018-07-16T03:12:16.640Z,99778.30
2018-07-16T03:13:55.306Z,99802.35
2018-07-16T03:15:37.771Z,99886.59
2018-07-16T03:17:23.954Z,99918.48
2018-07-16T03:19:00.234Z,99899.45
2018-07-16T03:20:40.274Z,99867.00
2018-07-16T03:22:18.507Z,99846.64
2018-07-16T03:24:01.886Z,99812.08
2018-07-16T03:29:06.963Z,99803.70
2018-07-16T03:30:43.811Z,99649.19
2018-07-16T03:32:20.221Z,99615.19
2018-07-16T03:33:57.089Z,99659.33
2018-07-16T03:35:33.985Z,99703.30
2018-07-16T03:37:10.301Z,99683.44
2018-07-16T03:38:46.680Z,99664.35
2018-07-16T03:40:23.192Z,99661.65
2018-07-16T03:42:08.598Z,99633.44
2018-07-16T03:43:45.854Z,99587.78
2018-07-16T03:45:22.619Z,99499.84
2018-07-16T03:46:58.952Z,99410.50
2018-07-16T03:48:35.382Z,99322.92
2018-07-16T03:50:12.191Z,99354.98
2018-07-16T03:51:54.941Z,99418.98
2018-07-16T03:53:32.027Z,99592.22
2018-07-16T03:55:10.201Z,99763.59
2018-07-16T03:56:46.555Z,99893.45
2018-07-16T03:58:25.012Z,99987.44
2018-07-16T04:00:05.792Z,100044.25
2018-07-16T04:01:46.818Z,100060.56
2018-07-16T04:03:23.105Z,99989.27
2018-07-16T04:04:59.364Z,99975.09
2018-07-16T04:06:36.499Z,100042.98
2018-07-16T04:08:12.708Z,100021.34
2018-07-16T04:09:48.998Z,99996.04
2018-07-16T04:11:39.727Z,99935.38
2018-07-16T04:13:28.213Z,99971.73
2018-07-16T04:17:20.527Z,100074.59
2018-07-16T04:18:57.304Z,100089.30
2018-07-16T04:20:40.162Z,100070.14
2018-07-16T04:22:25.405Z,100069.27
2018-07-16T04:24:05.598Z,100102.63
2018-07-16T04:25:44.261Z,100111.91
2018-07-16T04:27:22.268Z,100164.41
2018-07-16T04:29:24.129Z,100202.59
2018-07-16T04:31:04.386Z,100250.02
2018-07-16T04:32:44.892Z,100272.74
2018-07-16T04:34:21.897Z,100343.77
2018-07-16T04:36:12.590Z,100404.34
2018-07-16T04:38:08.660Z,100474.67
2018-07-16T04:39:46.023Z,100599.66
2018-07-16T04:41:23.037Z,100680.23
2018-07-16T04:43:01.574Z,100822.47
2018-07-16T04:44:37.851Z,100972.37
2018-07-16T04:46:16.302Z,101024.16
2018-07-16T04:47:52.988Z,101012.48
2018-07-16T04:49:29.749Z,100858.95
2018-07-16T04:51:06.231Z,100775.77
2018-07-16T04:52:43.094Z,100731.72
2018-07-16T04:54:20.457Z,100766.47
2018-07-16T04:55:56.726Z,100964.39
2018-07-16T04:57:33.000Z,101034.82
2018-07-16T04:59:09.671Z,100980.05
2018-07-16T05:00:46.191Z,100931.48
2018-07-16T05:02:22.462Z,100922.14
2018-07-16T05:03:58.841Z,100948.46
2018-07-16T05:05:35.529Z,100956.05
2018-07-16T05:07:11.800Z,100997.99
2018-07-16T05:08:49.718Z,101118.52
2018-07-16T05:10:26.047Z,101152.55
2018-07-16T05:12:02.712Z,101228.11
2018-07-16T05:13:39.072Z,101335.22
2018-07-16T05:15:17.713Z,101602.48
2018-07-16T05:16:54.748Z,101996.08
2018-07-16T05:18:31.139Z,102298.48
2018-07-16T05:20:07.305Z,102417.22
2018-07-16T05:21:43.674Z,102505.47
2018-07-16T05:23:19.985Z,102640.59
2018-07-16T05:24:56.614Z,102778.55
2018-07-16T05:26:32.987Z,102660.09
2018-07-16T05:28:09.227Z,102817.38
2018-07-16T05:29:45.626Z,103030.84
2018-07-16T05:31:23.196Z,102989.79
2018-07-16T05:33:02.335Z,102835.11
2018-07-16T05:34:38.669Z,103066.17
2018-07-16T05:36:14.938Z,103293.06
2018-07-16T05:37:51.630Z,103445.52
2018-07-16T05:39:27.854Z,103408.02
2018-07-16T05:41:05.420Z,103411.18
2018-07-16T05:42:41.774Z,103407.54
2018-07-16T05:44:18.337Z,103403.48
2018-07-16T05:45:55.595Z,103350.99
2018-07-16T05:47:31.863Z,103336.55
2018-07-16T05:49:08.050Z,103095.61
2018-07-16T05:50:44.333Z,103015.73
2018-07-16T05:52:23.625Z,103018.88
2018-07-16T05:53:59.866Z,102852.77
2018-07-16T05:55:36.674Z,102722.16
2018-07-16T05:57:13.614Z,102670.23
2018-07-16T05:58:50.045Z,102585.50
2018-07-16T06:00:27.979Z,102788.77
2018-07-16T06:02:12.278Z,103069.05
2018-07-16T06:03:48.895Z,103323.84
2018-07-16T06:05:25.214Z,103526.62
2018-07-16T06:07:01.501Z,103690.13
2018-07-16T06:08:39.672Z,103664.78
2018-07-16T06:10:16.399Z,103772.13
2018-07-16T06:11:52.693Z,103851.06
2018-07-16T06:13:29.028Z,103899.59
2018-07-16T06:15:09.439Z,103914.55
2018-07-16T06:16:48.738Z,103553.80
2018-07-16T06:18:25.013Z,103599.50
2018-07-16T06:20:04.567Z,103523.94
2018-07-16T06:21:40.840Z,103307.61
2018-07-16T06:23:17.146Z,102943.95
2018-07-16T06:24:58.692Z,102643.14
2018-07-16T06:26:35.484Z,102374.91
2018-07-16T06:28:12.120Z,102316.50
2018-07-16T06:29:49.475Z,102226.44
2018-07-16T06:31:26.054Z,102500.33
2018-07-16T06:33:02.368Z,102780.48
2018-07-16T06:34:39.069Z,103007.84
2018-07-16T06:36:15.419Z,103010.59
2018-07-16T06:37:51.782Z,102594.86
2018-07-16T06:39:28.178Z,102479.55
2018-07-16T06:41:05.264Z,102521.88
2018-07-16T06:42:42.422Z,102444.50
2018-07-16T06:44:18.710Z,102686.73
2018-07-16T06:45:56.142Z,102639.27
2018-07-16T06:47:32.224Z,102651.95
2018-07-16T06:49:12.735Z,102592.53
2018-07-16T06:50:50.520Z,102391.80
2018-07-16T06:52:27.307Z,102437.73
2018-07-16T06:54:03.971Z,102554.61
2018-07-16T06:55:41.647Z,102430.42
2018-07-16T06:57:19.070Z,102323.78
2018-07-16T06:58:56.854Z,102155.67
2018-07-16T07:00:34.041Z,102298.26
2018-07-16T07:02:10.465Z,102520.73
2018-07-16T07:03:46.715Z,102640.52
2018-07-16T07:05:26.588Z,102925.05
2018-07-16T07:07:03.546Z,102993.59
2018-07-16T07:08:39.843Z,103090.64
2018-07-16T07:10:17.253Z,103279.99
2018-07-16T07:11:54.055Z,103065.86
2018-07-16T07:13:30.970Z,102961.14
2018-07-16T07:15:09.354Z,103065.38
2018-07-16T07:16:47.949Z,103146.70
2018-07-16T07:18:26.048Z,103185.52
2018-07-16T07:20:03.767Z,103252.44
2018-07-16T07:21:40.082Z,103267.33
2018-07-16T07:23:16.870Z,103063.53
2018-07-16T07:24:56.213Z,102830.20
2018-07-16T07:26:33.338Z,102751.72
2018-07-16T07:28:13.763Z,102773.31
2018-07-16T07:29:50.045Z,102778.78
2018-07-16T07:31:28.698Z,102727.80
2018-07-16T07:33:07.517Z,102232.74
2018-07-16T07:34:48.465Z,102074.52
2018-07-16T07:36:26.546Z,101988.77
2018-07-16T07:38:03.940Z,101963.18
2018-07-16T07:39:40.300Z,102192.67
2018-07-16T07:41:17.367Z,102521.84
2018-07-16T07:42:54.829Z,102749.31
2018-07-16T07:44:35.182Z,102870.21
2018-07-16T07:46:15.350Z,102542.93
2018-07-16T07:47:56.202Z,102475.92
2018-07-16T07:49:32.934Z,102500.22
2018-07-16T07:51:09.289Z,102339.99
2018-07-16T07:52:46.263Z,102112.19
2018-07-16T07:54:23.272Z,102189.44
2018-07-16T07:55:59.620Z,102243.73
2018-07-16T07:57:36.025Z,102245.10
2018-07-16T07:59:12.385Z,102281.00
2018-07-16T08:00:53.517Z,102256.37
2018-07-16T08:02:33.756Z,102412.38
2018-07-16T08:04:11.854Z,102469.97
2018-07-16T08:06:08.735Z,102797.50
2018-07-16T08:07:46.716Z,103032.47
2018-07-16T08:09:31.021Z,103165.34
2018-07-16T08:11:08.587Z,103233.02
2018-07-16T08:12:44.937Z,103317.61
2018-07-16T08:14:22.048Z,103405.46
2018-07-16T08:15:58.618Z,103465.56
2018-07-16T08:17:34.882Z,103485.45
2018-07-16T08:19:16.232Z,103502.67
2018-07-16T08:20:59.710Z,103184.25
2018-07-16T08:22:56.416Z,102740.62
2018-07-16T08:24:33.382Z,102543.16
2018-07-16T08:26:12.605Z,102475.73
2018-07-16T08:27:50.377Z,102353.36
2018-07-16T08:29:28.547Z,102354.30
2018-07-16T08:31:07.768Z,102627.06
2018-07-16T08:32:45.348Z,102931.63
2018-07-16T08:34:23.209Z,103186.81
2018-07-16T08:35:59.624Z,103392.55
2018-07-16T08:37:36.350Z,103500.75
2018-07-16T08:39:13.448Z,103473.50
2018-07-16T08:40:49.839Z,103312.88
2018-07-16T08:42:26.763Z,103162.43
2018-07-16T08:44:04.990Z,103354.55
2018-07-16T08:45:41.552Z,103553.35
2018-07-16T08:47:18.250Z,103619.87
2018-07-16T08:48:56.469Z,103723.11
2018-07-16T08:50:47.165Z,103709.00
2018-07-16T08:52:23.569Z,103570.44
2018-07-16T08:54:00.335Z,103505.59
2018-07-16T08:55:41.280Z,103511.50
2018-07-16T08:57:20.476Z,103447.30
2018-07-16T08:58:57.084Z,103232.38
2018-07-16T09:00:35.847Z,103202.97
2018-07-16T09:02:12.528Z,103255.39
2018-07-16T09:03:50.675Z,103331.37
2018-07-16T09:05:28.029Z,103424.98
2018-07-16T09:07:05.293Z,103576.59
2018-07-16T09:08:44.662Z,103706.67
2018-07-16T09:10:21.444Z,103617.37
2018-07-16T09:11:59.747Z,103632.84
2018-07-16T09:13:36.666Z,103697.11
2018-07-16T09:15:16.050Z,103742.00
2018-07-16T09:16:55.622Z,103835.91
2018-07-16T09:18:33.430Z,103807.72
2018-07-16T09:20:13.337Z,103744.20
2018-07-16T09:21:58.655Z,103743.79
2018-07-16T09:23:36.677Z,103701.58
2018-07-16T09:25:14.915Z,103546.66
2018-07-16T09:26:55.562Z,103403.65
2018-07-16T09:28:32.377Z,103408.49
2018-07-16T09:30:09.718Z,103586.88
2018-07-16T09:31:46.559Z,103577.73
2018-07-16T09:33:50.794Z,103609.95
2018-07-16T09:35:33.346Z,103274.98
2018-07-16T09:37:10.376Z,103117.64
2018-07-16T09:38:52.854Z,103091.89
2018-07-16T09:40:42.846Z,103316.10
2018-07-16T09:42:24.146Z,103579.46
2018-07-16T09:44:01.196Z,103649.70
2018-07-16T09:45:39.685Z,103669.55
2018-07-16T09:47:18.996Z,103605.20
2018-07-16T09:48:55.521Z,103510.11
2018-07-16T09:50:33.568Z,103453.80
2018-07-16T09:52:14.421Z,103244.03
2018-07-16T09:53:54.513Z,103015.92
2018-07-16T09:55:33.451Z,102941.41
2018-07-16T09:57:10.599Z,102858.83
2018-07-16T09:58:48.410Z,102692.42
2018-07-16T10:00:30.926Z,102606.34
2018-07-16T10:02:22.358Z,102717.64
2018-07-16T10:03:58.662Z,102936.22
2018-07-16T10:05:38.320Z,103017.09
2018-07-16T10:07:20.329Z,103040.97
2018-07-16T10:08:57.427Z,103157.06
2018-07-16T10:10:38.619Z,103137.59
2018-07-16T10:12:15.747Z,103157.06
2018-07-16T10:13:53.851Z,103204.47
2018-07-16T10:15:33.836Z,103285.83
2018-07-16T10:17:11.600Z,103522.45
2018-07-16T10:18:49.044Z,103622.13
2018-07-16T10:20:26.574Z,103603.02
2018-07-16T10:22:04.194Z,103487.57
2018-07-16T10:23:40.658Z,103378.38
2018-07-16T10:25:19.543Z,103260.39
2018-07-16T10:26:57.610Z,103292.07
2018-07-16T10:28:44.437Z,103401.01
2018-07-16T10:30:25.561Z,103410.97
2018-07-16T10:32:03.862Z,103510.56
2018-07-16T10:33:41.048Z,103609.76
2018-07-16T10:35:18.671Z,103625.12
2018-07-16T10:36:55.364Z,103631.45
2018-07-16T10:38:32.497Z,103591.06
2018-07-16T10:40:13.715Z,103497.36
2018-07-16T10:42:02.155Z,103321.24
2018-07-16T10:43:46.156Z,103221.38
2018-07-16T10:45:28.023Z,103239.05
2018-07-16T10:47:08.217Z,103317.20
2018-07-16T10:48:46.377Z,103441.64
2018-07-16T10:50:24.410Z,103508.13
2018-07-16T10:52:03.514Z,103507.16
2018-07-16T10:53:41.170Z,103433.39
2018-07-16T10:55:24.586Z,103125.39
2018-07-16T10:57:11.643Z,102989.51
2018-07-16T10:58:48.381Z,103214.03
2018-07-16T11:00:28.531Z,103292.13
2018-07-16T11:02:05.627Z,103336.45
2018-07-16T11:03:43.265Z,103462.18
2018-07-16T11:05:20.692Z,103504.75
2018-07-16T11:06:57.237Z,103552.73
2018-07-16T11:08:40.200Z,103559.91
2018-07-16T11:10:17.363Z,103646.49
2018-07-16T11:11:53.812Z,103707.61
2018-07-16T11:13:32.195Z,103714.84
2018-07-16T11:15:09.979Z,103438.58
2018-07-16T11:16:47.800Z,103481.59
2018-07-16T11:18:24.426Z,103558.95
2018-07-16T11:20:01.946Z,103701.73
2018-07-16T11:21:41.298Z,103735.59
2018-07-16T11:23:20.436Z,103581.06
2018-07-16T11:25:00.358Z,103419.41
2018-07-16T11:26:43.155Z,103465.10
2018-07-16T11:28:23.593Z,103421.54
2018-07-16T11:30:07.785Z,103521.66
2018-07-16T11:31:44.906Z,103594.57
2018-07-16T11:33:23.576Z,103557.82
2018-07-16T11:35:02.254Z,103575.48
2018-07-16T11:36:38.651Z,103538.33
2018-07-16T11:38:15.284Z,103547.89
2018-07-16T11:39:59.429Z,103545.55
2018-07-16T11:41:39.062Z,103530.56
2018-07-16T11:43:15.505Z,103570.41
2018-07-16T11:44:55.367Z,103552.25
2018-07-16T11:46:34.811Z,103596.16
2018-07-16T11:48:12.469Z,103626.52
2018-07-16T11:49:49.736Z,103687.73
2018-07-16T11:51:37.191Z,103702.63
2018-07-16T11:53:15.152Z,103810.06
2018-07-16T11:54:55.915Z,103855.30
2018-07-16T11:56:33.469Z,103855.30
2018-07-16T11:58:09.862Z,103813.64
2018-07-16T11:59:47.656Z,103732.43
2018-07-16T12:01:25.443Z,103678.03
2018-07-16T12:03:03.350Z,103484.06
2018-07-16T12:04:40.691Z,103321.19
2018-07-16T12:06:23.770Z,103376.41
2018-07-16T12:08:00.077Z,103388.97
2018-07-16T12:09:36.535Z,103097.00
2018-07-16T12:11:14.628Z,103003.03
2018-07-16T12:12:53.056Z,102970.95
2018-07-16T12:14:30.242Z,102999.91
2018-07-16T12:16:09.495Z,103208.54
2018-07-16T12:17:46.552Z,103372.14
2018-07-16T12:19:25.644Z,103455.37
2018-07-16T12:21:06.457Z,103309.61
2018-07-16T12:22:44.493Z,103284.80
2018-07-16T12:24:20.894Z,103471.14
2018-07-16T12:25:59.668Z,103570.78
2018-07-16T12:27:38.440Z,103610.18
2018-07-16T12:29:16.540Z,103625.55
2018-07-16T12:30:58.300Z,103621.94
2018-07-16T12:32:43.435Z,103702.56
2018-07-16T12:34:25.261Z,103756.94
2018-07-16T12:36:02.655Z,103715.13
2018-07-16T12:37:40.868Z,103711.58
2018-07-16T12:39:22.362Z,103658.13
2018-07-16T12:41:04.696Z,103538.46
2018-07-16T12:42:43.463Z,103356.95
2018-07-16T12:44:22.925Z,103326.56
2018-07-16T12:46:02.452Z,103532.55
2018-07-16T12:47:51.884Z,103638.14
2018-07-16T12:49:28.406Z,103680.14
2018-07-16T12:51:06.777Z,103711.00
2018-07-16T12:52:43.479Z,103692.87
2018-07-16T12:54:19.688Z,103749.92
2018-07-16T12:55:56.735Z,103612.14
2018-07-16T12:57:33.464Z,103436.84
2018-07-16T12:59:11.791Z,103372.53
2018-07-16T13:00:51.737Z,103313.30
2018-07-16T13:04:16.107Z,103475.19
2018-07-16T13:05:53.897Z,103489.17
2018-07-16T13:07:32.768Z,103500.92
2018-07-16T13:09:10.028Z,103351.20
2018-07-16T13:10:49.424Z,103183.31
2018-07-16T13:12:29.719Z,103272.85
2018-07-16T13:14:07.611Z,103301.83
2018-07-16T13:15:51.241Z,103169.35
2018-07-16T13:17:28.506Z,102999.88
2018-07-16T13:19:06.390Z,102948.55
2018-07-16T13:20:46.469Z,102877.67
2018-07-16T13:22:24.801Z,102873.96
2018-07-16T13:24:01.802Z,102909.10
2018-07-16T13:25:39.405Z,102954.67
2018-07-16T13:27:18.573Z,103096.94
2018-07-16T13:28:57.204Z,103164.20
2018-07-16T13:30:34.521Z,103347.72
2018-07-16T13:32:12.819Z,103400.61
2018-07-16T13:33:49.181Z,103437.72
2018-07-16T13:35:26.549Z,103475.27
2018-07-16T13:37:05.535Z,103416.86
2018-07-16T13:38:48.529Z,103379.77
2018-07-16T13:40:32.738Z,103198.50
2018-07-16T13:42:11.354Z,103258.56
2018-07-16T13:43:55.051Z,103419.54
2018-07-16T13:45:34.758Z,103519.58
2018-07-16T13:47:12.037Z,103597.11
2018-07-16T13:48:50.388Z,103604.70
2018-07-16T13:50:58.510Z,103586.17
2018-07-16T13:54:43.267Z,103592.91
2018-07-16T13:57:59.136Z,103649.89
2018-07-16T13:59:35.675Z,103666.27
2018-07-16T14:01:13.887Z,103624.55
2018-07-16T14:03:04.007Z,103686.12
2018-07-16T14:04:42.218Z,103791.77
2018-07-16T14:06:21.103Z,103811.70
2018-07-16T14:08:04.548Z,103756.77
2018-07-16T14:09:45.676Z,103653.95
2018-07-16T14:11:23.827Z,103481.76
2018-07-16T14:13:01.434Z,103190.83
2018-07-16T14:14:38.442Z,103198.99
2018-07-16T14:16:15.676Z,103184.03
2018-07-16T14:17:52.943Z,103241.03
2018-07-16T14:19:29.351Z,103439.59
2018-07-16T14:21:07.354Z,103606.58
2018-07-16T14:22:44.666Z,103651.02
2018-07-16T14:26:06.788Z,103594.75
2018-07-16T14:27:44.016Z,103636.47
2018-07-16T14:29:21.230Z,103632.83
2018-07-16T14:31:00.201Z,103597.91
2018-07-16T14:32:41.340Z,103545.30
2018-07-16T14:34:19.467Z,103538.50
2018-07-16T14:35:58.686Z,103605.63
2018-07-16T14:37:35.233Z,103651.70
2018-07-16T14:39:12.119Z,103655.35
2018-07-16T14:40:49.123Z,103748.67
2018-07-16T14:42:27.238Z,103737.34
2018-07-16T14:44:05.727Z,103818.97
2018-07-16T14:45:43.202Z,103873.86
2018-07-16T14:47:20.062Z,103932.41
2018-07-16T14:48:57.191Z,104004.95
2018-07-16T14:50:36.957Z,103990.34
2018-07-16T14:52:13.735Z,103970.80
2018-07-16T14:53:50.175Z,103963.16
2018-07-16T14:55:27.290Z,104007.64
2018-07-16T14:57:03.970Z,103994.41
2018-07-16T14:58:42.544Z,103986.69
2018-07-16T15:00:22.252Z,103952.23
2018-07-16T15:02:00.170Z,103876.41
2018-07-16T15:03:37.535Z,103823.34
2018-07-16T15:05:14.177Z,103854.16
2018-07-16T15:07:07.547Z,103919.36
2018-07-16T15:08:46.423Z,103977.45
2018-07-16T15:10:22.904Z,103984.28
2018-07-16T15:12:01.402Z,103954.75
2018-07-16T15:13:40.288Z,103946.06
2018-07-16T15:15:21.836Z,103848.98
2018-07-16T15:17:03.064Z,103764.08
2018-07-16T15:18:43.264Z,103855.73
2018-07-16T15:20:23.282Z,103880.23
2018-07-16T15:22:03.540Z,103876.95
2018-07-16T15:23:42.245Z,103764.91
2018-07-16T15:25:19.677Z,103747.66
2018-07-16T15:26:58.502Z,103778.91
2018-07-16T15:28:37.349Z,103840.24
2018-07-16T15:30:19.311Z,103880.53
2018-07-16T15:31:56.627Z,103773.41
2018-07-16T15:33:39.801Z,103773.89
2018-07-16T15:35:21.535Z,103860.52
2018-07-16T15:37:04.230Z,103927.11
2018-07-16T15:38:44.346Z,103846.41
2018-07-16T15:40:25.260Z,103788.72
2018-07-16T15:42:05.131Z,103752.03
2018-07-16T15:43:47.465Z,103708.83
2018-07-16T15:45:24.081Z,103610.84
2018-07-16T15:47:03.947Z,103575.93
2018-07-16T15:48:42.007Z,103555.98
2018-07-16T15:50:18.752Z,103589.14
2018-07-16T15:51:56.507Z,103652.61
2018-07-16T15:53:32.881Z,103619.33
2018-07-16T15:55:11.049Z,103626.14
2018-07-16T15:56:47.376Z,103558.66
2018-07-16T15:58:24.411Z,103564.51
2018-07-16T16:00:01.270Z,103592.20
2018-07-16T16:03:22.644Z,103597.97
2018-07-16T16:04:59.821Z,103663.23
2018-07-16T16:06:36.250Z,103771.57
2018-07-16T16:08:12.683Z,103873.56
2018-07-16T16:09:49.877Z,103911.29
2018-07-16T16:11:28.486Z,103902.13
2018-07-16T16:13:06.580Z,103868.57
2018-07-16T16:14:44.055Z,103830.37
2018-07-16T16:16:22.663Z,103861.75
2018-07-16T16:17:59.510Z,103864.81
2018-07-16T16:19:36.084Z,103837.57
2018-07-16T16:21:13.167Z,103867.57
2018-07-16T16:22:49.627Z,103882.00
2018-07-16T16:24:30.980Z,103833.44
2018-07-16T16:26:08.714Z,103709.63
2018-07-16T16:27:46.775Z,103850.73
2018-07-16T16:29:24.338Z,103956.02
2018-07-16T16:31:03.248Z,103963.66
2018-07-16T16:32:44.794Z,103982.23
2018-07-16T16:34:29.935Z,103974.52
2018-07-16T16:36:14.556Z,103919.11
2018-07-16T16:37:54.552Z,103767.05
2018-07-16T16:39:33.545Z,103677.73
2018-07-16T16:41:15.377Z,103433.61
2018-07-16T16:42:55.237Z,103336.80
2018-07-16T16:44:38.202Z,103404.08
2018-07-16T16:46:17.859Z,103413.16
2018-07-16T16:47:56.079Z,103314.86
2018-07-16T16:49:34.161Z,103257.94
2018-07-16T16:51:15.510Z,103186.02
2018-07-16T16:52:53.769Z,103177.92
2018-07-16T16:54:33.909Z,103120.48
2018-07-16T16:56:12.545Z,103273.69
2018-07-16T16:59:38.294Z,103507.52
2018-07-16T17:01:20.461Z,103498.44
2018-07-16T17:02:59.448Z,103498.92
2018-07-16T17:04:36.836Z,103492.05
2018-07-16T17:06:16.844Z,103469.95
2018-07-16T17:07:53.881Z,103492.05
2018-07-16T17:09:30.389Z,103415.09
2018-07-16T17:11:12.397Z,103413.30
2018-07-16T17:12:49.444Z,103465.33
2018-07-16T17:14:26.696Z,103480.22
2018-07-16T17:16:07.713Z,103524.59
2018-07-16T17:17:44.801Z,103463.95
2018-07-16T17:19:21.226Z,103413.12
2018-07-16T17:20:59.335Z,103348.91
2018-07-16T17:22:35.585Z,103333.93
2018-07-16T17:24:12.835Z,103183.82
2018-07-16T17:25:49.300Z,103122.81
2018-07-16T17:27:25.692Z,103155.37
2018-07-16T17:29:02.952Z,103234.89
2018-07-16T17:30:40.484Z,103362.41
2018-07-16T17:32:17.981Z,103378.27
2018-07-16T17:33:58.981Z,103499.48
2018-07-16T17:35:35.413Z,103590.09
2018-07-16T17:37:14.577Z,103506.30
2018-07-16T17:38:52.611Z,103410.36
2018-07-16T17:40:32.299Z,103178.70
2018-07-16T17:42:10.418Z,103281.38
2018-07-16T17:43:52.011Z,103328.76
2018-07-16T17:45:38.307Z,103347.34
2018-07-16T17:47:19.177Z,103326.08
2018-07-16T17:48:59.588Z,103327.45
2018-07-16T17:50:37.584Z,103373.07
2018-07-16T17:52:20.955Z,103331.02
2018-07-16T17:54:02.443Z,103382.06
2018-07-16T17:55:43.242Z,103536.95
2018-07-16T17:57:24.488Z,103569.44
2018-07-16T17:59:02.015Z,103551.77
2018-07-16T18:00:42.693Z,103473.03
2018-07-16T18:02:24.149Z,103380.58
2018-07-16T18:04:01.815Z,103342.66
2018-07-16T18:05:41.713Z,103306.05
2018-07-16T18:07:24.092Z,103293.25
2018-07-16T18:09:06.019Z,103432.60
2018-07-16T18:10:44.685Z,103509.53
2018-07-16T18:12:22.543Z,103566.98
2018-07-16T18:14:00.554Z,103579.23
2018-07-16T18:15:41.579Z,103582.87
2018-07-16T18:17:20.120Z,103597.84
2018-07-16T18:18:58.499Z,103645.88
2018-07-16T18:20:38.582Z,103662.11
2018-07-16T18:22:15.581Z,103700.58
2018-07-16T18:23:51.825Z,103711.94
2018-07-16T18:25:30.501Z,103741.37
2018-07-16T18:27:09.721Z,103662.11
2018-07-16T18:28:49.960Z,103526.12
2018-07-16T18:30:30.430Z,103486.27
2018-07-16T18:32:09.474Z,103441.93
2018-07-16T18:33:49.601Z,103378.97
2018-07-16T18:35:30.617Z,103401.14
2018-07-16T18:37:08.918Z,103394.73
2018-07-16T18:38:46.457Z,103330.61
2018-07-16T18:40:25.217Z,103226.95
2018-07-16T18:42:05.660Z,103259.02
2018-07-16T18:43:44.574Z,103226.06
2018-07-16T18:45:25.533Z,103229.11
2018-07-16T18:47:02.842Z,103226.47
2018-07-16T18:48:40.057Z,103261.63
2018-07-16T18:50:19.556Z,103232.67
2018-07-16T18:52:02.456Z,103224.09
2018-07-16T18:53:54.535Z,103155.38
2018-07-16T18:58:49.612Z,103154.82
2018-07-16T19:00:30.270Z,103196.05
2018-07-16T19:02:10.533Z,103218.59
2018-07-16T19:03:49.370Z,103239.88
2018-07-16T19:05:26.710Z,103233.56
2018-07-16T19:07:03.618Z,103237.62
2018-07-16T19:08:41.469Z,103267.42
2018-07-16T19:14:29.271Z,103220.45